createdAt,value
2023-02-27T00:00:43.251Z,449.00
2023-02-27T00:01:43.251Z,449.00
2023-02-27T00:02:43.320Z,445.00
2023-02-27T00:03:43.320Z,445.00
2023-02-27T00:04:43.214Z,447.00
2023-02-27T00:05:43.206Z,450.00
2023-02-27T00:55:38.708Z,447.00
2023-02-27T00:56:39.681Z,449.00
2023-02-27T00:57:39.700Z,447.00
2023-02-27T00:58:39.658Z,448.00
2023-02-27T00:59:39.652Z,444.00
2023-02-27T01:00:39.682Z,445.00
2023-02-27T01:01:39.627Z,445.00
2023-02-27T01:02:39.636Z,446.00
2023-02-27T01:03:39.615Z,445.00
2023-02-27T01:04:39.606Z,447.00
2023-02-27T01:05:39.602Z,449.00
2023-02-27T01:06:39.592Z,448.00
2023-02-27T01:07:39.581Z,446.00
2023-02-27T01:08:39.573Z,445.00
2023-02-27T01:09:39.572Z,452.00
2023-02-27T01:10:39.561Z,455.00
2023-02-27T01:11:39.573Z,452.00
2023-02-27T01:12:39.544Z,453.00
2023-02-27T01:13:39.567Z,452.00
2023-02-27T01:14:39.520Z,448.00
2023-02-27T01:15:39.521Z,446.00
2023-02-27T01:16:39.539Z,446.00
2023-02-27T01:17:39.508Z,447.00
2023-02-27T01:18:39.488Z,448.00
2023-02-27T01:19:39.483Z,447.00
2023-02-27T01:20:39.477Z,448.00
2023-02-27T01:21:39.462Z,447.00
2023-02-27T01:22:39.455Z,450.00
2023-02-27T01:23:39.448Z,450.00
2023-02-27T01:24:39.440Z,452.00
2023-02-27T01:25:39.428Z,453.00
2023-02-27T01:26:39.420Z,456.00
2023-02-27T01:27:39.473Z,457.00
2023-02-27T01:28:39.404Z,457.00
2023-02-27T01:29:39.398Z,460.00
2023-02-27T01:30:39.431Z,459.00
2023-02-27T01:31:39.411Z,458.00
2023-02-27T01:32:39.414Z,457.00
2023-02-27T01:33:39.368Z,459.00
2023-02-27T01:34:39.354Z,456.00
2023-02-27T01:35:39.350Z,456.00
2023-02-27T01:36:39.330Z,457.00
2023-02-27T01:37:39.341Z,454.00
2023-02-27T01:38:39.320Z,454.00
2023-02-27T01:39:39.310Z,453.00
2023-02-27T01:40:39.361Z,452.00
2023-02-27T01:41:39.291Z,452.00
2023-02-27T01:42:39.288Z,449.00
2023-02-27T01:43:39.388Z,448.00
2023-02-27T01:44:39.267Z,448.00
2023-02-27T01:45:39.327Z,447.00
2023-02-27T01:46:39.257Z,448.00
2023-02-27T01:47:39.242Z,449.00
2023-02-27T01:48:39.233Z,449.00
2023-02-27T01:49:39.227Z,449.00
2023-02-27T01:50:39.210Z,447.00
2023-02-27T01:51:39.202Z,447.00
2023-02-27T01:52:39.202Z,449.00
2023-02-27T01:53:39.181Z,451.00
2023-02-27T01:54:39.180Z,454.00
2023-02-27T01:55:39.181Z,455.00
2023-02-27T01:56:39.191Z,454.00
2023-02-27T01:57:39.151Z,453.00
2023-02-27T01:58:39.142Z,451.00
2023-02-27T01:59:39.155Z,452.00
2023-02-27T02:00:39.131Z,449.00
2023-02-27T02:01:39.191Z,446.00
2023-02-27T02:02:39.108Z,447.00
2023-02-27T02:03:39.107Z,447.00
2023-02-27T02:04:39.093Z,446.00
2023-02-27T02:05:39.079Z,446.00
2023-02-27T02:06:39.071Z,448.00
2023-02-27T02:07:39.057Z,449.00
2023-02-27T02:08:39.053Z,451.00
2023-02-27T02:09:39.050Z,453.00
2023-02-27T02:10:39.033Z,452.00
2023-02-27T02:11:39.036Z,454.00
2023-02-27T02:12:39.023Z,452.00
2023-02-27T02:13:39.007Z,453.00
2023-02-27T02:14:38.997Z,450.00
2023-02-27T02:15:39.053Z,449.00
2023-02-27T02:16:39.054Z,453.00
2023-02-27T02:17:38.980Z,456.00
2023-02-27T02:18:38.966Z,454.00
2023-02-27T02:19:38.993Z,453.00
2023-02-27T02:20:38.999Z,451.00
2023-02-27T02:21:38.937Z,449.00
2023-02-27T02:22:38.935Z,448.00
2023-02-27T02:23:38.933Z,451.00
2023-02-27T02:24:38.908Z,450.00
2023-02-27T02:25:38.906Z,447.00
2023-02-27T02:26:38.916Z,443.00
2023-02-27T02:27:38.884Z,447.00
2023-02-27T02:28:38.885Z,448.00
2023-02-27T02:29:38.870Z,450.00
2023-02-27T02:30:38.965Z,450.00
2023-02-27T02:31:39.055Z,450.00
2023-02-27T02:32:38.841Z,449.00
2023-02-27T02:33:38.838Z,449.00
2023-02-27T02:34:38.821Z,450.00
2023-02-27T02:35:38.816Z,451.00
2023-02-27T02:36:38.809Z,452.00
2023-02-27T02:37:38.793Z,450.00
2023-02-27T02:38:38.787Z,452.00
2023-02-27T02:39:38.798Z,453.00
2023-02-27T02:40:38.771Z,452.00
2023-02-27T02:41:38.760Z,450.00
2023-02-27T02:42:38.755Z,449.00
2023-02-27T02:43:38.742Z,450.00
2023-02-27T02:44:38.744Z,450.00
2023-02-27T02:45:38.726Z,449.00
2023-02-27T02:46:38.721Z,448.00
2023-02-27T02:47:38.732Z,448.00
2023-02-27T02:48:38.700Z,448.00
2023-02-27T02:49:38.692Z,448.00
2023-02-27T02:50:38.711Z,451.00
2023-02-27T02:51:38.677Z,453.00
2023-02-27T02:52:38.662Z,453.00
2023-02-27T02:53:38.655Z,450.00
2023-02-27T02:54:38.650Z,450.00
2023-02-27T02:55:38.646Z,448.00
2023-02-27T02:56:38.636Z,444.00
2023-02-27T02:57:38.625Z,446.00
2023-02-27T02:58:38.611Z,445.00
2023-02-27T02:59:38.602Z,442.00
2023-02-27T03:00:38.596Z,441.00
2023-02-27T03:01:38.612Z,440.00
2023-02-27T03:02:38.588Z,438.00
2023-02-27T03:03:38.596Z,440.00
2023-02-27T03:04:38.592Z,444.00
2023-02-27T03:05:38.549Z,443.00
2023-02-27T03:06:38.545Z,443.00
2023-02-27T03:07:38.574Z,441.00
2023-02-27T03:08:38.523Z,443.00
2023-02-27T03:09:38.520Z,443.00
2023-02-27T03:10:38.515Z,445.00
2023-02-27T03:11:38.495Z,444.00
2023-02-27T03:12:38.490Z,445.00
2023-02-27T03:13:38.479Z,445.00
2023-02-27T03:14:38.471Z,445.00
2023-02-27T03:15:38.498Z,447.00
2023-02-27T03:16:38.451Z,450.00
2023-02-27T03:17:38.461Z,449.00
2023-02-27T03:18:38.435Z,448.00
2023-02-27T03:19:38.454Z,443.00
2023-02-27T03:20:38.416Z,445.00
2023-02-27T03:21:38.412Z,446.00
2023-02-27T03:22:38.400Z,444.00
2023-02-27T03:23:38.397Z,442.00
2023-02-27T03:24:38.382Z,442.00
2023-02-27T03:25:38.382Z,448.00
2023-02-27T03:26:38.379Z,449.00
2023-02-27T03:27:38.354Z,451.00
2023-02-27T03:28:38.343Z,453.00
2023-02-27T03:29:38.339Z,453.00
2023-02-27T03:30:38.375Z,454.00
2023-02-27T03:31:38.409Z,450.00
2023-02-27T03:32:38.316Z,449.00
2023-02-27T03:33:38.294Z,450.00
2023-02-27T03:34:38.289Z,449.00
2023-02-27T03:35:38.314Z,451.00
2023-02-27T03:36:38.269Z,450.00
2023-02-27T03:37:38.260Z,450.00
2023-02-27T03:38:38.258Z,455.00
2023-02-27T03:39:38.252Z,457.00
2023-02-27T03:40:38.305Z,458.00
2023-02-27T03:41:38.235Z,456.00
2023-02-27T03:42:38.213Z,454.00
2023-02-27T03:43:38.206Z,454.00
2023-02-27T03:44:38.207Z,453.00
2023-02-27T03:45:38.196Z,455.00
2023-02-27T03:46:38.224Z,454.00
2023-02-27T03:47:38.177Z,454.00
2023-02-27T03:48:38.163Z,457.00
2023-02-27T03:49:38.155Z,448.00
2023-02-27T03:50:38.150Z,450.00
2023-02-27T03:51:38.169Z,450.00
2023-02-27T03:52:38.128Z,453.00
2023-02-27T03:53:38.121Z,453.00
2023-02-27T03:54:38.114Z,454.00
2023-02-27T03:55:38.105Z,452.00
2023-02-27T03:56:38.100Z,451.00
2023-02-27T03:57:38.148Z,451.00
2023-02-27T03:58:38.078Z,453.00
2023-02-27T03:59:38.067Z,451.00
2023-02-27T04:00:38.064Z,449.00
2023-02-27T04:01:38.213Z,449.00
2023-02-27T04:02:38.115Z,448.00
2023-02-27T04:03:38.039Z,451.00
2023-02-27T04:04:38.021Z,450.00
2023-02-27T04:05:38.016Z,451.00
2023-02-27T04:06:38.005Z,453.00
2023-02-27T04:07:38.031Z,451.00
2023-02-27T04:08:38.008Z,450.00
2023-02-27T04:09:37.985Z,449.00
2023-02-27T04:10:37.983Z,449.00
2023-02-27T04:11:37.962Z,448.00
2023-02-27T04:12:37.955Z,447.00
2023-02-27T04:13:37.945Z,445.00
2023-02-27T04:14:37.937Z,446.00
2023-02-27T04:15:37.932Z,444.00
2023-02-27T04:16:37.920Z,445.00
2023-02-27T04:17:37.908Z,445.00
2023-02-27T04:18:37.906Z,445.00
2023-02-27T04:20:37.880Z,442.00
2023-02-27T04:21:37.873Z,442.00
2023-02-27T04:22:37.865Z,442.00
2023-02-27T04:23:37.996Z,441.00
2023-02-27T04:24:37.854Z,442.00
2023-02-27T04:25:37.839Z,446.00
2023-02-27T04:26:37.832Z,446.00
2023-02-27T04:27:37.828Z,443.00
2023-02-27T04:28:37.818Z,444.00
2023-02-27T04:29:37.814Z,445.00
2023-02-27T04:30:37.800Z,443.00
2023-02-27T04:31:37.914Z,443.00
2023-02-27T04:32:37.958Z,444.00
2023-02-27T04:33:37.772Z,450.00
2023-02-27T04:34:37.769Z,446.00
2023-02-27T04:35:37.758Z,443.00
2023-02-27T04:36:37.753Z,440.00
2023-02-27T04:37:37.739Z,438.00
2023-02-27T04:38:37.734Z,442.00
2023-02-27T04:39:37.753Z,443.00
2023-02-27T04:40:37.717Z,442.00
2023-02-27T04:41:37.705Z,443.00
2023-02-27T04:42:37.704Z,444.00
2023-02-27T04:43:37.698Z,445.00
2023-02-27T04:44:37.688Z,447.00
2023-02-27T04:45:37.737Z,446.00
2023-02-27T04:46:37.668Z,445.00
2023-02-27T04:47:37.662Z,445.00
2023-02-27T04:48:37.648Z,442.00
2023-02-27T04:49:37.664Z,441.00
2023-02-27T04:50:37.650Z,440.00
2023-02-27T04:51:37.646Z,439.00
2023-02-27T04:52:37.613Z,440.00
2023-02-27T04:53:37.606Z,440.00
2023-02-27T04:54:37.591Z,441.00
2023-02-27T04:55:37.721Z,443.00
2023-02-27T04:56:37.581Z,442.00
2023-02-27T04:57:37.573Z,440.00
2023-02-27T04:58:37.559Z,442.00
2023-02-27T04:59:37.560Z,441.00
2023-02-27T05:00:37.542Z,441.00
2023-02-27T05:01:37.596Z,440.00
2023-02-27T05:02:37.640Z,443.00
2023-02-27T05:03:37.515Z,440.00
2023-02-27T05:04:37.510Z,441.00
2023-02-27T05:05:37.494Z,438.00
2023-02-27T05:06:37.486Z,438.00
2023-02-27T05:07:37.496Z,442.00
2023-02-27T05:08:37.469Z,442.00
2023-02-27T05:09:37.459Z,439.00
2023-02-27T05:10:37.451Z,437.00
2023-02-27T05:11:37.469Z,437.00
2023-02-27T05:12:37.443Z,436.00
2023-02-27T05:13:37.431Z,437.00
2023-02-27T05:14:37.424Z,437.00
2023-02-27T05:15:37.470Z,438.00
2023-02-27T05:16:37.546Z,440.00
2023-02-27T05:17:37.453Z,440.00
2023-02-27T05:18:37.384Z,441.00
2023-02-27T05:19:37.373Z,442.00
2023-02-27T05:20:37.422Z,443.00
2023-02-27T05:21:37.358Z,442.00
2023-02-27T05:22:37.362Z,439.00
2023-02-27T05:23:37.337Z,438.00
2023-02-27T05:24:37.331Z,441.00
2023-02-27T05:25:37.327Z,443.00
2023-02-27T05:26:37.314Z,444.00
2023-02-27T05:27:37.332Z,444.00
2023-02-27T05:28:37.294Z,445.00
2023-02-27T05:29:37.292Z,447.00
2023-02-27T05:30:37.287Z,447.00
2023-02-27T05:31:37.294Z,446.00
2023-02-27T05:32:37.351Z,447.00
2023-02-27T05:33:37.256Z,446.00
2023-02-27T05:34:37.242Z,444.00
2023-02-27T05:35:37.265Z,444.00
2023-02-27T05:36:37.227Z,445.00
2023-02-27T05:37:37.222Z,442.00
2023-02-27T05:38:37.204Z,442.00
2023-02-27T05:39:37.198Z,441.00
2023-02-27T05:40:37.193Z,441.00
2023-02-27T05:41:37.183Z,442.00
2023-02-27T05:42:37.170Z,442.00
2023-02-27T05:43:37.190Z,441.00
2023-02-27T05:44:37.149Z,445.00
2023-02-27T05:45:37.213Z,446.00
2023-02-27T05:46:37.140Z,446.00
2023-02-27T05:47:37.129Z,444.00
2023-02-27T05:48:37.116Z,445.00
2023-02-27T05:49:37.118Z,444.00
2023-02-27T05:50:37.101Z,445.00
2023-02-27T05:51:37.092Z,448.00
2023-02-27T05:52:37.083Z,447.00
2023-02-27T05:53:37.074Z,447.00
2023-02-27T05:54:37.065Z,445.00
2023-02-27T05:55:37.059Z,448.00
2023-02-27T05:56:37.056Z,447.00
2023-02-27T05:57:37.049Z,445.00
2023-02-27T05:58:37.032Z,445.00
2023-02-27T05:59:37.047Z,446.00
2023-02-27T06:00:37.013Z,444.00
2023-02-27T06:01:37.000Z,443.00
2023-02-27T06:02:37.028Z,439.00
2023-02-27T06:03:37.019Z,439.00
2023-02-27T06:04:36.982Z,440.00
2023-02-27T06:05:36.974Z,441.00
2023-02-27T06:06:36.963Z,445.00
2023-02-27T06:07:36.957Z,446.00
2023-02-27T06:08:36.955Z,443.00
2023-02-27T06:09:36.941Z,444.00
2023-02-27T06:10:36.930Z,444.00
2023-02-27T06:11:36.927Z,447.00
2023-02-27T06:12:36.913Z,445.00
2023-02-27T06:13:36.912Z,443.00
2023-02-27T06:14:36.892Z,440.00
2023-02-27T06:15:36.963Z,439.00
2023-02-27T06:16:36.907Z,442.00
2023-02-27T06:17:36.868Z,448.00
2023-02-27T06:18:37.034Z,446.00
2023-02-27T06:19:36.853Z,447.00
2023-02-27T06:20:36.844Z,447.00
2023-02-27T06:21:36.832Z,446.00
2023-02-27T06:22:37.026Z,448.00
2023-02-27T06:23:36.822Z,451.00
2023-02-27T06:24:36.817Z,452.00
2023-02-27T06:25:36.802Z,452.00
2023-02-27T06:26:36.836Z,449.00
2023-02-27T06:27:36.781Z,446.00
2023-02-27T06:28:36.771Z,451.00
2023-02-27T06:29:36.770Z,453.00
2023-02-27T06:30:36.854Z,456.00
2023-02-27T06:31:37.105Z,459.00
2023-02-27T06:32:36.746Z,459.00
2023-02-27T06:33:36.734Z,459.00
2023-02-27T06:34:36.721Z,456.00
2023-02-27T06:35:36.732Z,459.00
2023-02-27T06:36:37.012Z,460.00
2023-02-27T06:37:36.708Z,462.00
2023-02-27T06:38:37.014Z,465.00
2023-02-27T06:39:36.674Z,468.00
2023-02-27T06:40:36.659Z,473.00
2023-02-27T06:41:36.660Z,473.00
2023-02-27T06:42:36.657Z,477.00
2023-02-27T06:43:37.177Z,480.00
2023-02-27T06:44:36.632Z,483.00
2023-02-27T06:45:36.620Z,488.00
2023-02-27T06:46:36.684Z,491.00
2023-02-27T06:47:36.626Z,498.00
2023-02-27T06:48:36.589Z,507.00
2023-02-27T06:49:37.031Z,513.00
2023-02-27T06:50:36.600Z,537.00
2023-02-27T06:51:36.604Z,547.00
2023-02-27T06:52:36.561Z,557.00
2023-02-27T06:53:36.583Z,572.00
2023-02-27T06:55:36.573Z,614.00
2023-02-27T06:56:36.526Z,618.00
2023-02-27T06:57:36.527Z,626.00
2023-02-27T06:58:36.504Z,654.00
2023-02-27T06:59:36.526Z,655.00
2023-02-27T07:00:40.246Z,654.00
2023-02-27T07:01:36.488Z,652.00
2023-02-27T07:02:36.466Z,653.00
2023-02-27T07:03:36.549Z,648.00
2023-02-27T07:04:52.131Z,644.00
2023-02-27T07:05:39.640Z,643.00
2023-02-27T07:07:32.870Z,643.00
2023-02-27T07:07:39.758Z,640.00
2023-02-27T07:08:36.528Z,640.00
2023-02-27T07:09:36.406Z,639.00
2023-02-27T07:10:36.532Z,639.00
2023-02-27T07:11:36.396Z,640.00
2023-02-27T07:12:36.381Z,638.00
2023-02-27T07:13:36.378Z,640.00
2023-02-27T07:14:36.528Z,638.00
2023-02-27T07:15:36.412Z,635.00
2023-02-27T07:16:36.346Z,635.00
2023-02-27T07:17:36.344Z,634.00
2023-02-27T07:18:36.334Z,633.00
2023-02-27T07:19:36.364Z,633.00
2023-02-27T07:20:36.586Z,632.00
2023-02-27T07:21:36.326Z,632.00
2023-02-27T07:22:36.346Z,631.00
2023-02-27T07:23:36.292Z,629.00
2023-02-27T07:24:36.537Z,627.00
2023-02-27T07:25:36.591Z,627.00
2023-02-27T07:26:36.670Z,626.00
2023-02-27T07:27:36.267Z,627.00
2023-02-27T07:28:36.593Z,628.00
2023-02-27T07:29:36.562Z,628.00
2023-02-27T07:30:36.262Z,627.00
2023-02-27T07:31:36.239Z,628.00
2023-02-27T07:32:36.220Z,625.00
2023-02-27T07:33:36.238Z,625.00
2023-02-27T07:34:36.197Z,623.00
2023-02-27T07:35:36.243Z,623.00
2023-02-27T07:36:36.180Z,620.00
2023-02-27T07:37:36.172Z,620.00
2023-02-27T07:38:36.153Z,618.00
2023-02-27T07:39:36.160Z,618.00
2023-02-27T07:40:36.137Z,619.00
2023-02-27T07:41:36.137Z,617.00
2023-02-27T07:42:36.146Z,617.00
2023-02-27T07:43:36.128Z,617.00
2023-02-27T07:44:36.909Z,616.00
2023-02-27T07:45:36.100Z,619.00
2023-02-27T07:46:36.277Z,622.00
2023-02-27T07:47:36.610Z,623.00
2023-02-27T07:48:36.081Z,619.00
2023-02-27T07:49:36.548Z,616.00
2023-02-27T07:50:36.074Z,614.00
2023-02-27T07:51:36.075Z,615.00
2023-02-27T07:52:36.048Z,614.00
2023-02-27T07:53:36.036Z,614.00
2023-02-27T07:54:36.019Z,617.00
2023-02-27T07:55:36.241Z,618.00
2023-02-27T07:56:36.004Z,618.00
2023-02-27T07:57:35.997Z,618.00
2023-02-27T07:58:35.993Z,618.00
2023-02-27T07:59:36.054Z,617.00
2023-02-27T08:00:35.978Z,614.00
2023-02-27T08:01:36.066Z,613.00
2023-02-27T08:02:36.411Z,614.00
2023-02-27T08:03:35.952Z,613.00
2023-02-27T08:04:36.000Z,613.00
2023-02-27T08:05:36.063Z,612.00
2023-02-27T08:06:35.921Z,614.00
2023-02-27T08:07:35.938Z,613.00
2023-02-27T08:08:35.920Z,612.00
2023-02-27T08:09:35.921Z,611.00
2023-02-27T08:10:36.090Z,611.00
2023-02-27T08:11:35.953Z,609.00
2023-02-27T08:12:36.079Z,610.00
2023-02-27T08:13:59.579Z,610.00
2023-02-27T08:14:36.078Z,612.00
2023-02-27T08:15:35.843Z,610.00
2023-02-27T08:16:35.927Z,609.00
2023-02-27T08:17:35.816Z,604.00
2023-02-27T08:18:35.815Z,607.00
2023-02-27T08:19:36.065Z,606.00
2023-02-27T08:20:35.868Z,605.00
2023-02-27T08:21:35.838Z,609.00
2023-02-27T08:22:35.774Z,613.00
2023-02-27T08:23:35.800Z,617.00
2023-02-27T08:24:36.076Z,614.00
2023-02-27T08:25:35.751Z,608.00
2023-02-27T08:26:36.250Z,608.00
2023-02-27T08:27:35.943Z,608.00
2023-02-27T08:28:36.110Z,607.00
2023-02-27T08:29:36.166Z,608.00
2023-02-27T08:30:35.978Z,606.00
2023-02-27T08:31:36.273Z,604.00
2023-02-27T08:32:35.810Z,602.00
2023-02-27T08:33:35.698Z,601.00
2023-02-27T08:34:35.676Z,602.00
2023-02-27T08:36:36.072Z,605.00
2023-02-27T08:37:35.889Z,610.00
2023-02-27T08:38:36.103Z,620.00
2023-02-27T08:39:35.653Z,629.00
2023-02-27T08:40:36.069Z,637.00
2023-02-27T08:41:35.608Z,666.00
2023-02-27T08:42:35.618Z,699.00
2023-02-27T08:43:36.081Z,730.00
2023-02-27T08:44:35.605Z,741.00
2023-02-27T08:45:35.597Z,758.00
2023-02-27T08:46:35.563Z,805.00
2023-02-27T08:47:35.663Z,825.00
2023-02-27T08:48:35.540Z,851.00
2023-02-27T08:49:35.586Z,872.00
2023-02-27T08:50:35.583Z,877.00
2023-02-27T08:51:35.857Z,892.00
2023-02-27T08:52:35.514Z,905.00
2023-02-27T08:53:35.504Z,948.00
2023-02-27T08:54:35.862Z,987.00
2023-02-27T08:55:35.513Z,986.00
2023-02-27T08:56:35.469Z,996.00
2023-02-27T08:57:35.536Z,1001.00
2023-02-27T08:58:35.444Z,1014.00
2023-02-27T08:59:35.576Z,1045.00
2023-02-27T09:00:35.575Z,1065.00
2023-02-27T09:01:35.427Z,1080.00
2023-02-27T09:02:35.464Z,1088.00
2023-02-27T09:03:35.406Z,1112.00
2023-02-27T09:04:35.397Z,1120.00
2023-02-27T09:05:35.491Z,1129.00
2023-02-27T09:06:35.382Z,1137.00
2023-02-27T09:07:36.364Z,1151.00
2023-02-27T09:08:35.585Z,1161.00
2023-02-27T09:09:35.355Z,1171.00
2023-02-27T09:10:35.353Z,1215.00
2023-02-27T09:11:38.228Z,1216.00
2023-02-27T09:12:35.331Z,1227.00
2023-02-27T09:13:35.580Z,1249.00
2023-02-27T09:14:35.309Z,1261.00
2023-02-27T09:15:35.299Z,1279.00
2023-02-27T09:16:35.671Z,1291.00
2023-02-27T09:17:35.283Z,1305.00
2023-02-27T09:18:35.287Z,1316.00
2023-02-27T09:19:35.284Z,1339.00
2023-02-27T09:20:35.615Z,1360.00
2023-02-27T09:21:35.250Z,1376.00
2023-02-27T09:22:35.236Z,1388.00
2023-02-27T09:23:35.591Z,1399.00
2023-02-27T09:24:35.226Z,1439.00
2023-02-27T09:25:35.218Z,1457.00
2023-02-27T09:26:45.012Z,1471.00
2023-02-27T09:27:35.219Z,1485.00
2023-02-27T09:28:35.198Z,1495.00
2023-02-27T09:29:35.192Z,1523.00
2023-02-27T09:30:35.164Z,1525.00
2023-02-27T09:31:35.978Z,1546.00
2023-02-27T09:32:35.436Z,1570.00
2023-02-27T09:33:35.150Z,1580.00
2023-02-27T09:34:35.139Z,1590.00
2023-02-27T09:35:35.145Z,1603.00
2023-02-27T09:36:35.593Z,1613.00
2023-02-27T09:37:35.104Z,1624.00
2023-02-27T09:38:35.874Z,1662.00
2023-02-27T09:39:35.091Z,1672.00
2023-02-27T09:40:35.151Z,1685.00
2023-02-27T09:41:35.090Z,1695.00
2023-02-27T09:42:35.092Z,1715.00
2023-02-27T09:43:35.078Z,1751.00
2023-02-27T09:44:45.592Z,1773.00
2023-02-27T09:45:35.065Z,1793.00
2023-02-27T09:46:35.133Z,1702.00
2023-02-27T09:48:35.427Z,1847.00
2023-02-27T09:49:35.100Z,1863.00
2023-02-27T09:54:35.097Z,1126.00
2023-02-27T09:56:35.166Z,1061.00
2023-02-27T10:00:35.097Z,1061.00
2023-02-27T10:01:35.099Z,1059.00
2023-02-27T10:06:36.098Z,1022.00
2023-02-27T10:09:35.115Z,1014.00
2023-02-27T10:11:35.136Z,993.00
2023-02-27T10:14:36.239Z,973.00
2023-02-27T10:19:35.733Z,929.00
2023-02-27T10:21:35.114Z,1045.00
2023-02-27T10:26:35.118Z,1171.00
2023-02-27T10:27:35.119Z,1213.00
2023-02-27T10:29:35.119Z,1255.00
2023-02-27T10:33:35.631Z,1257.00
2023-02-27T10:34:35.367Z,1292.00
2023-02-27T10:35:42.060Z,1208.00
2023-02-27T10:36:37.982Z,1319.00
2023-02-27T10:40:37.747Z,1381.00
2023-02-27T11:07:37.821Z,1692.00
2023-02-27T11:12:35.296Z,1881.00
2023-02-27T11:14:35.284Z,1851.00
2023-02-27T11:26:37.369Z,1745.00
2023-02-27T12:06:05.649Z,1741.00
